Wetterstation Vordersexau
Wetterdaten: Woche 17.10.16 - 23.10.16 (KW42)
Datum Zeit Temp. A. Feuchte A. Luftdruck Regen Wind Richtung Taupunkt Windchill Windben
17.10.2016 00:00 8,1 C 84 % 1019,4 hPa 0,0 l/m 0,0 km/h N-NO 5,6 C 8,1 C 0,0 km/h
17.10.2016 01:00 8,5 C 84 % 1019,6 hPa 0,0 l/m 0,0 km/h NO 6,0 C 8,5 C 0,0 km/h
17.10.2016 02:00 8,3 C 83 % 1019,5 hPa 0,0 l/m 0,0 km/h NW 5,6 C 8,3 C 0,0 km/h
17.10.2016 03:00 8,7 C 82 % 1019,6 hPa 0,0 l/m 0,0 km/h NW 5,8 C 8,7 C 0,0 km/h
17.10.2016 04:00 7,8 C 83 % 1019,8 hPa 0,0 l/m 0,0 km/h N-NO 5,1 C 7,8 C 0,0 km/h
17.10.2016 05:00 8,2 C 82 % 1019,5 hPa 0,0 l/m 0,0 km/h N-NO 5,3 C 8,2 C 0,0 km/h
17.10.2016 06:00 8,1 C 82 % 1019,3 hPa 0,0 l/m 0,0 km/h N-NO 5,2 C 8,1 C 0,0 km/h
17.10.2016 07:00 8,9 C 81 % 1019,3 hPa 0,0 l/m 0,0 km/h NO 5,8 C 8,9 C 0,0 km/h
17.10.2016 08:00 8,9 C 81 % 1019,4 hPa 0,0 l/m 0,0 km/h NO 5,8 C 8,9 C 0,0 km/h
17.10.2016 09:00 10,8 C 79 % 1020,0 hPa 0,0 l/m 0,0 km/h N 7,3 C 10,8 C 0,0 km/h
17.10.2016 10:00 12,9 C 83 % 1020,2 hPa 0,0 l/m 0,0 km/h W-NW 10,1 C 12,9 C 0,0 km/h
17.10.2016 12:00 16,4 C 79 % 1020,2 hPa 0,0 l/m 0,0 km/h W 12,7 C 16,4 C 0,0 km/h
17.10.2016 13:00 16,9 C 77 % 1020,2 hPa 0,0 l/m 0,0 km/h W-SW 12,8 C 16,9 C 0,0 km/h
17.10.2016 14:00 17,3 C 77 % 1020,0 hPa 0,0 l/m 1,9 km/h W 13,2 C 17,3 C 1,1 km/h
17.10.2016 15:00 17,6 C 76 % 1019,9 hPa 0,0 l/m 0,0 km/h W 13,3 C 17,6 C 0,0 km/h
17.10.2016 16:00 16,4 C 78 % 1020,0 hPa 0,0 l/m 0,0 km/h S 12,6 C 16,4 C 0,0 km/h
17.10.2016 17:00 13,9 C 83 % 1020,6 hPa 0,5 l/m 0,0 km/h S 11,1 C 13,9 C 0,0 km/h
17.10.2016 18:00 13,6 C 83 % 1020,4 hPa 0,5 l/m 0,0 km/h S 10,8 C 13,6 C 0,0 km/h
17.10.2016 19:00 13,2 C 83 % 1020,6 hPa 0,5 l/m 0,0 km/h S 10,4 C 13,2 C 0,0 km/h
17.10.2016 20:00 12,6 C 82 % 1020,7 hPa 0,0 l/m 0,0 km/h O-SO 9,6 C 12,6 C 0,0 km/h
17.10.2016 21:00 12,4 C 79 % 1020,6 hPa 0,0 l/m 0,0 km/h O-SO 8,9 C 12,4 C 0,0 km/h
17.10.2016 22:00 12,2 C 78 % 1020,6 hPa 0,5 l/m 1,3 km/h SO 8,5 C 12,2 C 0,7 km/h
17.10.2016 23:00 12,2 C 77 % 1020,6 hPa 0,0 l/m 0,0 km/h SO 8,3 C 12,2 C 0,0 km/h
18.10.2016 00:00 12,2 C 76 % 1020,6 hPa 0,5 l/m 0,0 km/h SO 8,1 C 12,2 C 0,0 km/h
18.10.2016 01:00 12,1 C 76 % 1020,6 hPa 0,0 l/m 0,0 km/h SO 8,0 C 12,1 C 0,0 km/h
18.10.2016 02:00 12,3 C 76 % 1020,5 hPa 0,5 l/m 0,0 km/h N 8,2 C 12,3 C 0,0 km/h
18.10.2016 03:00 12,1 C 75 % 1020,9 hPa 1,0 l/m 0,0 km/h N 7,8 C 12,1 C 0,0 km/h
18.10.2016 04:00 12,1 C 75 % 1020,9 hPa 0,0 l/m 0,0 km/h N 7,8 C 12,1 C 0,0 km/h
18.10.2016 05:00 11,9 C 74 % 1020,8 hPa 0,0 l/m 0,0 km/h N 7,4 C 11,9 C 0,0 km/h
18.10.2016 06:00 12,1 C 73 % 1021,0 hPa 2,1 l/m 0,0 km/h S 7,4 C 12,1 C 0,0 km/h
18.10.2016 07:00 11,9 C 72 % 1020,9 hPa 0,0 l/m 0,0 km/h W 7,0 C 11,9 C 0,0 km/h
18.10.2016 08:00 11,5 C 72 % 1021,0 hPa 0,0 l/m 0,0 km/h W 6,6 C 11,5 C 0,0 km/h
18.10.2016 09:00 12,2 C 69 % 1021,4 hPa 0,0 l/m 0,0 km/h W 6,7 C 12,2 C 0,0 km/h
18.10.2016 10:00 13,1 C 74 % 1021,5 hPa 0,0 l/m 1,3 km/h W-NW 8,6 C 13,1 C 0,7 km/h
18.10.2016 11:00 12,8 C 74 % 1021,8 hPa 2,6 l/m 0,0 km/h W-NW 8,3 C 12,8 C 0,0 km/h
18.10.2016 12:00 13,6 C 78 % 1021,8 hPa 0,0 l/m 0,0 km/h N 9,8 C 13,6 C 0,0 km/h
18.10.2016 13:00 16,1 C 81 % 1021,6 hPa 0,5 l/m 0,0 km/h SO 12,8 C 16,1 C 0,0 km/h
18.10.2016 14:00 18,1 C 82 % 1021,0 hPa 0,0 l/m 0,0 km/h SO 15,0 C 18,1 C 0,0 km/h
18.10.2016 15:00 18,4 C 78 % 1020,5 hPa 0,0 l/m 2,6 km/h SO 14,5 C 18,4 C 1,4 km/h
18.10.2016 16:00 21,4 C 63 % 1020,1 hPa 0,0 l/m 0,0 km/h SO 14,1 C 21,4 C 0,0 km/h
18.10.2016 17:00 16,4 C 70 % 1019,8 hPa 0,0 l/m 0,0 km/h SO 10,9 C 16,4 C 0,0 km/h
18.10.2016 18:00 12,9 C 82 % 1019,8 hPa 0,0 l/m 0,0 km/h SO 9,9 C 12,9 C 0,0 km/h
18.10.2016 19:00 10,9 C 84 % 1019,8 hPa 0,0 l/m 0,0 km/h O-NO 8,3 C 10,9 C 0,0 km/h
18.10.2016 20:00 10,2 C 84 % 1019,7 hPa 0,5 l/m 0,0 km/h O-SO 7,6 C 10,2 C 0,0 km/h
18.10.2016 21:00 10,6 C 82 % 1019,5 hPa 0,0 l/m 1,3 km/h N-NO 7,7 C 10,6 C 0,7 km/h
18.10.2016 22:00 11,3 C 83 % 1019,8 hPa 0,0 l/m 0,0 km/h N-NO 8,5 C 11,3 C 0,0 km/h
18.10.2016 23:00 11,1 C 82 % 1019,5 hPa 0,0 l/m 0,0 km/h N-NO 8,1 C 11,1 C 0,0 km/h
19.10.2016 00:00 10,4 C 82 % 1019,4 hPa 0,0 l/m 0,0 km/h N-NO 7,5 C 10,4 C 0,0 km/h
19.10.2016 01:00 9,8 C 82 % 1019,1 hPa 0,0 l/m 0,0 km/h S-SW 6,9 C 9,8 C 0,0 km/h
19.10.2016 02:00 11,1 C 83 % 1018,6 hPa 0,0 l/m 5,2 km/h SW 8,3 C 11,1 C 2,9 km/h
19.10.2016 03:00 11,3 C 84 % 1018,3 hPa 0,0 l/m 0,0 km/h W-SW 8,7 C 11,3 C 0,0 km/h
19.10.2016 04:00 11,2 C 83 % 1017,8 hPa 0,0 l/m 1,9 km/h W-SW 8,4 C 11,2 C 1,1 km/h
19.10.2016 05:00 11,0 C 83 % 1017,5 hPa 0,0 l/m 21,4 km/h SW 8,2 C 4,2 C 11,9 km/h
19.10.2016 06:00 10,5 C 84 % 1017,8 hPa 0,0 l/m 20,1 km/h W 7,9 C 3,9 C 11,2 km/h
19.10.2016 07:00 9,9 C 84 % 1017,8 hPa 0,0 l/m 0,0 km/h W 7,3 C 9,9 C 0,0 km/h
19.10.2016 08:00 9,8 C 83 % 1018,2 hPa 0,0 l/m 0,0 km/h W 7,1 C 9,8 C 0,0 km/h
19.10.2016 09:00 9,5 C 83 % 1018,7 hPa 0,0 l/m 0,0 km/h N 6,8 C 9,5 C 0,0 km/h
19.10.2016 10:00 11,1 C 84 % 1018,8 hPa 0,0 l/m 9,1 km/h NO 8,5 C 9,3 C 5,0 km/h
19.10.2016 11:00 14,8 C 71 % 1018,6 hPa 0,0 l/m 0,0 km/h SW 9,6 C 14,8 C 0,0 km/h
19.10.2016 12:00 19,2 C 56 % 1017,9 hPa 0,0 l/m 20,7 km/h S-SW 10,2 C 15,0 C 11,5 km/h
19.10.2016 13:00 16,6 C 56 % 1017,4 hPa 0,0 l/m 12,3 km/h W 7,8 C 14,0 C 6,8 km/h
19.10.2016 14:00 13,5 C 60 % 1016,7 hPa 0,0 l/m 0,0 km/h W-SW 5,9 C 13,5 C 0,0 km/h
19.10.2016 15:00 14,3 C 60 % 1016,2 hPa 0,0 l/m 0,0 km/h S-SW 6,6 C 14,3 C 0,0 km/h
19.10.2016 16:00 12,6 C 66 % 1015,8 hPa 0,0 l/m 8,4 km/h W 6,4 C 11,3 C 4,7 km/h
19.10.2016 17:00 11,2 C 75 % 1015,7 hPa 0,5 l/m 3,2 km/h W-SW 6,9 C 11,2 C 1,8 km/h
19.10.2016 18:00 11,4 C 73 % 1015,7 hPa 0,0 l/m 16,2 km/h SW 6,7 C 6,4 C 9,0 km/h
19.10.2016 19:00 10,1 C 76 % 1015,7 hPa 0,0 l/m 1,3 km/h W-SW 6,1 C 10,1 C 0,7 km/h
19.10.2016 20:00 9,5 C 79 % 1015,7 hPa 0,0 l/m 0,0 km/h W 6,0 C 9,5 C 0,0 km/h
19.10.2016 21:00 9,5 C 80 % 1015,5 hPa 0,0 l/m 11,7 km/h W-SW 6,2 C 6,1 C 6,5 km/h
19.10.2016 22:00 9,4 C 80 % 1015,7 hPa 0,0 l/m 5,8 km/h W-SW 6,1 C 9,4 C 3,2 km/h
19.10.2016 23:00 9,0 C 81 % 1015,7 hPa 0,0 l/m 0,0 km/h SW 5,9 C 9,0 C 0,0 km/h
20.10.2016 00:00 9,1 C 82 % 1015,3 hPa 0,0 l/m 0,0 km/h SW 6,2 C 9,1 C 0,0 km/h
20.10.2016 01:00 8,5 C 82 % 1015,0 hPa 0,0 l/m 0,0 km/h W 5,6 C 8,5 C 0,0 km/h
20.10.2016 02:00 8,3 C 83 % 1014,8 hPa 0,0 l/m 0,0 km/h W-SW 5,6 C 8,3 C 0,0 km/h
20.10.2016 03:00 8,6 C 83 % 1014,5 hPa 0,0 l/m 0,0 km/h W-SW 5,9 C 8,6 C 0,0 km/h
20.10.2016 04:00 8,5 C 83 % 1014,1 hPa 0,0 l/m 0,0 km/h W 5,8 C 8,5 C 0,0 km/h
20.10.2016 05:00 8,4 C 83 % 1013,6 hPa 0,0 l/m 1,9 km/h SW 5,7 C 8,4 C 1,1 km/h
20.10.2016 06:00 8,3 C 83 % 1013,6 hPa 0,0 l/m 0,0 km/h S 5,6 C 8,3 C 0,0 km/h
20.10.2016 07:00 8,6 C 83 % 1013,4 hPa 0,0 l/m 0,0 km/h W-SW 5,9 C 8,6 C 0,0 km/h
20.10.2016 08:00 8,5 C 83 % 1013,5 hPa 0,0 l/m 12,3 km/h S-SW 5,8 C 4,6 C 6,8 km/h
20.10.2016 09:00 8,4 C 83 % 1013,8 hPa 0,0 l/m 0,0 km/h SW 5,7 C 8,4 C 0,0 km/h
20.10.2016 10:00 7,8 C 84 % 1014,1 hPa 0,5 l/m 5,8 km/h W-SW 5,3 C 7,8 C 3,2 km/h
20.10.2016 11:00 8,8 C 84 % 1014,0 hPa 0,0 l/m 0,0 km/h W 6,2 C 8,8 C 0,0 km/h
20.10.2016 12:00 10,4 C 82 % 1013,7 hPa 0,0 l/m 7,1 km/h SW 7,5 C 9,9 C 4,0 km/h
20.10.2016 13:00 10,7 C 79 % 1013,3 hPa 0,0 l/m 21,4 km/h W-SW 7,2 C 3,8 C 11,9 km/h
20.10.2016 14:00 11,2 C 77 % 1012,8 hPa 0,0 l/m 18,1 km/h W 7,3 C 5,5 C 10,1 km/h
20.10.2016 15:00 12,6 C 74 % 1012,5 hPa 0,0 l/m 5,8 km/h W 8,1 C 12,6 C 3,2 km/h
20.10.2016 16:00 12,4 C 70 % 1012,2 hPa 0,0 l/m 0,0 km/h W-SW 7,1 C 12,4 C 0,0 km/h
20.10.2016 17:00 11,1 C 74 % 1012,3 hPa 0,0 l/m 3,9 km/h S-SW 6,6 C 11,1 C 2,2 km/h
20.10.2016 18:00 10,3 C 77 % 1012,3 hPa 0,0 l/m 10,4 km/h SW 6,4 C 7,7 C 5,8 km/h
20.10.2016 19:00 9,7 C 79 % 1012,4 hPa 0,0 l/m 0,0 km/h SW 6,2 C 9,7 C 0,0 km/h
20.10.2016 20:00 9,6 C 80 % 1012,2 hPa 0,0 l/m 3,9 km/h SW 6,3 C 9,6 C 2,2 km/h
20.10.2016 21:00 9,4 C 80 % 1012,0 hPa 0,0 l/m 19,4 km/h W-SW 6,1 C 2,7 C 10,8 km/h
20.10.2016 22:00 9,2 C 82 % 1012,1 hPa 0,0 l/m 0,0 km/h S-SW 6,3 C 9,2 C 0,0 km/h
20.10.2016 23:00 9,2 C 82 % 1012,0 hPa 0,0 l/m 9,7 km/h SW 6,3 C 6,9 C 5,4 km/h
21.10.2016 00:00 9,2 C 83 % 1011,9 hPa 0,0 l/m 7,8 km/h SW 6,5 C 8,2 C 4,3 km/h
21.10.2016 01:00 9,1 C 83 % 1011,5 hPa 0,0 l/m 0,0 km/h W-SW 6,4 C 9,1 C 0,0 km/h
21.10.2016 02:00 8,8 C 84 % 1011,5 hPa 0,0 l/m 15,6 km/h W-SW 6,2 C 3,4 C 8,6 km/h
21.10.2016 03:00 8,5 C 84 % 1011,1 hPa 0,5 l/m 9,7 km/h NW 6,0 C 6,1 C 5,4 km/h
21.10.2016 04:00 8,1 C 84 % 1011,0 hPa 1,0 l/m 0,0 km/h W-NW 5,6 C 8,1 C 0,0 km/h
21.10.2016 05:00 7,6 C 83 % 1011,2 hPa 2,6 l/m 0,0 km/h W-NW 4,9 C 7,6 C 0,0 km/h
21.10.2016 06:00 7,3 C 82 % 1011,3 hPa 0,5 l/m 0,0 km/h W-NW 4,4 C 7,3 C 0,0 km/h
21.10.2016 07:00 7,1 C 82 % 1011,6 hPa 0,0 l/m 0,0 km/h W-NW 4,2 C 7,1 C 0,0 km/h
21.10.2016 08:00 7,3 C 82 % 1012,2 hPa 0,0 l/m 0,0 km/h W-NW 4,4 C 7,3 C 0,0 km/h
21.10.2016 09:00 7,4 C 80 % 1012,8 hPa 0,0 l/m 0,0 km/h W 4,2 C 7,4 C 0,0 km/h
21.10.2016 10:00 8,2 C 77 % 1012,8 hPa 0,0 l/m 0,0 km/h W-SW 4,4 C 8,2 C 0,0 km/h
21.10.2016 11:00 9,9 C 82 % 1013,3 hPa 0,0 l/m 0,0 km/h N-NW 7,0 C 9,9 C 0,0 km/h
21.10.2016 12:00 10,5 C 84 % 1013,5 hPa 0,0 l/m 0,0 km/h W 7,9 C 10,5 C 0,0 km/h
21.10.2016 13:00 11,2 C 79 % 1013,6 hPa 0,0 l/m 0,0 km/h W 7,7 C 11,2 C 0,0 km/h
21.10.2016 14:00 11,5 C 78 % 1013,4 hPa 0,0 l/m 0,0 km/h N 7,8 C 11,5 C 0,0 km/h
21.10.2016 15:00 11,6 C 71 % 1013,4 hPa 0,0 l/m 0,0 km/h NW 6,5 C 11,6 C 0,0 km/h
21.10.2016 16:00 10,5 C 75 % 1013,5 hPa 0,0 l/m 0,0 km/h SW 6,3 C 10,5 C 0,0 km/h
21.10.2016 17:00 10,2 C 75 % 1013,5 hPa 0,0 l/m 0,0 km/h S 6,0 C 10,2 C 0,0 km/h
21.10.2016 18:00 9,5 C 79 % 1013,6 hPa 0,0 l/m 0,0 km/h S 6,0 C 9,5 C 0,0 km/h
21.10.2016 19:00 8,2 C 82 % 1013,8 hPa 0,0 l/m 0,0 km/h S-SO 5,3 C 8,2 C 0,0 km/h
21.10.2016 20:00 7,4 C 84 % 1014,1 hPa 0,0 l/m 0,0 km/h S-SO 4,9 C 7,4 C 0,0 km/h
21.10.2016 21:00 7,0 C 85 % 1014,0 hPa 0,0 l/m 0,0 km/h S-SO 4,7 C 7,0 C 0,0 km/h
21.10.2016 22:00 6,6 C 85 % 1014,3 hPa 0,0 l/m 0,0 km/h S-SO 4,3 C 6,6 C 0,0 km/h
21.10.2016 23:00 6,4 C 84 % 1014,1 hPa 0,0 l/m 0,0 km/h S-SO 3,9 C 6,4 C 0,0 km/h
22.10.2016 00:00 6,4 C 84 % 1013,6 hPa 0,0 l/m 0,0 km/h S-SO 3,9 C 6,4 C 0,0 km/h
22.10.2016 01:00 4,8 C 85 % 1013,5 hPa 0,0 l/m 0,0 km/h SO 2,5 C 4,8 C 0,0 km/h
22.10.2016 02:00 5,1 C 83 % 1013,5 hPa 0,0 l/m 0,0 km/h SO 2,5 C 5,1 C 0,0 km/h
22.10.2016 03:00 5,5 C 82 % 1013,2 hPa 0,0 l/m 0,0 km/h N-NO 2,7 C 5,5 C 0,0 km/h
22.10.2016 04:00 5,4 C 82 % 1013,0 hPa 0,0 l/m 0,0 km/h N-NO 2,6 C 5,4 C 0,0 km/h
22.10.2016 05:00 3,8 C 83 % 1012,8 hPa 0,0 l/m 0,0 km/h N-NO 1,2 C 3,8 C 0,0 km/h
22.10.2016 06:00 4,1 C 82 % 1013,0 hPa 0,0 l/m 0,0 km/h N-NO 1,3 C 4,1 C 0,0 km/h
22.10.2016 07:00 3,1 C 82 % 1013,0 hPa 0,0 l/m 0,0 km/h N-NO 0,3 C 3,1 C 0,0 km/h
22.10.2016 08:00 2,4 C 82 % 1013,2 hPa 0,0 l/m 0,0 km/h N-NO -0,4 C 2,4 C 0,0 km/h
22.10.2016 09:00 3,2 C 81 % 1013,1 hPa 0,0 l/m 0,0 km/h SO 0,3 C 3,2 C 0,0 km/h
22.10.2016 10:00 10,2 C 79 % 1012,8 hPa 0,0 l/m 0,0 km/h N-NO 6,7 C 10,2 C 0,0 km/h
22.10.2016 11:00 16,3 C 70 % 1012,8 hPa 0,0 l/m 0,0 km/h W 10,8 C 16,3 C 0,0 km/h
22.10.2016 12:00 16,1 C 57 % 1012,7 hPa 0,0 l/m 0,0 km/h W-SW 7,6 C 16,1 C 0,0 km/h
22.10.2016 13:00 17,4 C 53 % 1012,5 hPa 0,0 l/m 0,0 km/h W 7,7 C 17,4 C 0,0 km/h
22.10.2016 14:00 17,3 C 50 % 1012,3 hPa 0,0 l/m 0,0 km/h N-NW 6,8 C 17,3 C 0,0 km/h
22.10.2016 15:00 15,1 C 49 % 1011,5 hPa 0,0 l/m 0,0 km/h N-NO 4,5 C 15,1 C 0,0 km/h
22.10.2016 16:00 21,4 C 39 % 1011,3 hPa 0,0 l/m 0,0 km/h N 6,9 C 21,4 C 0,0 km/h
22.10.2016 17:00 18,8 C 41 % 1011,2 hPa 0,0 l/m 1,3 km/h N-NO 5,3 C 18,8 C 0,7 km/h
22.10.2016 18:00 15,3 C 49 % 1011,3 hPa 0,0 l/m 0,0 km/h N-NO 4,7 C 15,3 C 0,0 km/h
22.10.2016 19:00 6,6 C 70 % 1011,9 hPa 0,0 l/m 0,0 km/h N-NO 1,5 C 6,6 C 0,0 km/h
22.10.2016 20:00 4,8 C 77 % 1011,9 hPa 0,0 l/m 0,0 km/h NO 1,1 C 4,8 C 0,0 km/h
22.10.2016 21:00 4,3 C 82 % 1011,8 hPa 0,0 l/m 0,0 km/h O 1,5 C 4,3 C 0,0 km/h
22.10.2016 22:00 4,1 C 84 % 1011,7 hPa 0,0 l/m 0,0 km/h O-SO 1,6 C 4,1 C 0,0 km/h
22.10.2016 23:00 3,9 C 85 % 1011,3 hPa 0,0 l/m 0,0 km/h O 1,6 C 3,9 C 0,0 km/h
23.10.2016 00:00 3,3 C 84 % 1011,2 hPa 0,0 l/m 0,0 km/h O 0,9 C 3,3 C 0,0 km/h
23.10.2016 01:00 1,8 C 85 % 1011,2 hPa 0,0 l/m 0,0 km/h O-NO -0,4 C 1,8 C 0,0 km/h
23.10.2016 02:00 1,4 C 85 % 1011,0 hPa 0,0 l/m 0,0 km/h O-NO -0,8 C 1,4 C 0,0 km/h
23.10.2016 03:00 1,4 C 85 % 1010,4 hPa 0,0 l/m 0,0 km/h O-NO -0,8 C 1,4 C 0,0 km/h
23.10.2016 04:00 1,3 C 85 % 1010,0 hPa 0,0 l/m 0,0 km/h NO -0,9 C 1,3 C 0,0 km/h
23.10.2016 05:00 1,9 C 84 % 1009,5 hPa 0,0 l/m 0,0 km/h O-NO -0,5 C 1,9 C 0,0 km/h
23.10.2016 06:00 2,2 C 84 % 1009,3 hPa 0,0 l/m 0,0 km/h O-NO -0,2 C 2,2 C 0,0 km/h
23.10.2016 07:00 2,9 C 84 % 1009,2 hPa 0,0 l/m 0,0 km/h NO 0,5 C 2,9 C 0,0 km/h
23.10.2016 08:00 3,3 C 83 % 1009,4 hPa 0,0 l/m 0,0 km/h NO 0,7 C 3,3 C 0,0 km/h
23.10.2016 09:00 4,2 C 82 % 1009,3 hPa 0,0 l/m 0,0 km/h W-NW 1,4 C 4,2 C 0,0 km/h
23.10.2016 10:00 7,3 C 84 % 1009,3 hPa 0,0 l/m 0,0 km/h W 4,8 C 7,3 C 0,0 km/h
23.10.2016 11:00 6,9 C 85 % 1009,2 hPa 0,0 l/m 6,5 km/h W-SW 4,6 C 6,8 C 3,6 km/h
23.10.2016 12:00 6,4 C 84 % 1010,0 hPa 0,0 l/m 0,0 km/h N 3,9 C 6,4 C 0,0 km/h
23.10.2016 13:00 7,5 C 85 % 1009,3 hPa 0,5 l/m 0,0 km/h O 5,1 C 7,5 C 0,0 km/h
23.10.2016 14:00 9,1 C 84 % 1008,9 hPa 0,0 l/m 0,0 km/h O 6,5 C 9,1 C 0,0 km/h
23.10.2016 15:00 8,6 C 84 % 1008,8 hPa 0,0 l/m 0,0 km/h O-NO 6,1 C 8,6 C 0,0 km/h
23.10.2016 16:00 8,4 C 84 % 1008,4 hPa 0,5 l/m 0,0 km/h W-NW 5,9 C 8,4 C 0,0 km/h
23.10.2016 17:00 7,9 C 84 % 1008,6 hPa 0,0 l/m 0,0 km/h W-NW 5,4 C 7,9 C 0,0 km/h
23.10.2016 18:00 7,5 C 84 % 1008,4 hPa 1,0 l/m 0,0 km/h W-NW 5,0 C 7,5 C 0,0 km/h
23.10.2016 19:00 7,5 C 84 % 1008,4 hPa 1,0 l/m 0,0 km/h W-NW 5,0 C 7,5 C 0,0 km/h
23.10.2016 20:00 7,4 C 82 % 1008,7 hPa 0,0 l/m 0,0 km/h W-NW 4,5 C 7,4 C 0,0 km/h
23.10.2016 21:00 7,4 C 82 % 1008,5 hPa 0,5 l/m 0,0 km/h W-NW 4,5 C 7,4 C 0,0 km/h
23.10.2016 22:00 7,6 C 82 % 1008,7 hPa 0,0 l/m 0,0 km/h W-NW 4,7 C 7,6 C 0,0 km/h
23.10.2016 23:00 7,9 C 81 % 1008,8 hPa 0,0 l/m 0,0 km/h W-NW 4,8 C 7,9 C 0,0 km/h
Min-Datum _ 23.10.16 22.10.16 23.10.16 - 17.10.16 - 23.10.16 23.10.16 17.10.16
_ Min-Zeit 04:11 16:11 16:11 - 00:11 - 04:11 04:11 00:11
Minimum _ 1,3 C 39 % 1008,4 hPa - 0,0 km/h - -0,9 C 1,3 C 0,0 km/h
Max-Datum _ 18.10.16 21.10.16 18.10.16 18.10.16 19.10.16 - 18.10.16 18.10.16 19.10.16
_ Max-Zeit 16:11 21:11 11:11 11:11 05:11 - 14:11 16:11 05:11
Maximum _ 21,4 C 85 % 1021,8 hPa 2,6 l/m 21,4 km/h
SW
- 15,0 C 21,4 C 11,9 km/h
SW
Durchschnitt _ 9,9 C 79 % 1015,1 hPa #19,2 l/m 1,8 km/h W 6,2 C 9,5 C 1,0 km/h
www.sexauwetter.de